Time;durP1;ratioP1;P1;durP2;ratioP2;P2;SDS_P1;SDS_P2;PMS_P1;PMS_P2;Temp;Humidity;BMP_temperature;BMP_pressure;BME280_temperature;BME280_humidity;BME280_pressure;Samples;Min_cycle;Max_cycle;Signal;HPM_P1;HPM_P2
2023/03/07 00:00:32;;;;;;;;;;;;;;;;;;4994425;28;19956;-85
2023/03/07 00:02:57;;;;;;;;;;;;;;;;;;4978149;28;19945;-85
2023/03/07 00:05:23;;;;;;;;;;;;;;;;;;4993853;28;19918;-85
2023/03/07 00:07:48;;;;;;;;;;;;;;;;;;4999880;28;19918;-85
2023/03/07 00:10:14;;;;;;;;;;;;;;;;;;4995481;28;20437;-85
2023/03/07 00:12:39;;;;;;;;;;;;;;;;;;4994189;28;20373;-86
2023/03/07 00:15:05;;;;;;;;;;;;;;;;;;4992037;28;19922;-86
2023/03/07 00:17:30;;;;;;;;;;;;;;;;;;5010279;28;20285;-86
2023/03/07 00:19:56;;;;;;;;;;;;;;;;;;4997273;28;19918;-86
2023/03/07 00:22:21;;;;;;;;;;;;;;;;;;5014858;28;20020;-85
2023/03/07 00:24:47;;;;;;;;;;;;;;;;;;4997212;28;19944;-86
2023/03/07 00:27:13;;;;;;;;;;;;;;;;;;4997014;28;20324;-85
2023/03/07 00:29:38;;;;;;;;;;;;;;;;;;4997093;28;19917;-86
2023/03/07 00:32:04;;;;;;;;;;;;;;;;;;4996762;28;19918;-87
2023/03/07 00:34:29;;;;;;;;;;;;;;;;;;5014555;28;19964;-86
2023/03/07 00:36:54;;;;;;;;;;;;;;;;;;4996561;28;19918;-86
2023/03/07 00:39:20;;;;;;;;;;;;;;;;;;5014623;28;19921;-86
2023/03/07 00:41:45;;;;;;;;;;;;;;;;;;5014546;28;20382;-86
2023/03/07 00:44:11;;;;;;;;;;;;;;;;;;5014471;28;19960;-87
2023/03/07 00:46:36;;;;;;;;;;;;;;;;;;4996973;28;19921;-86
2023/03/07 00:49:02;;;;;;;;;;;;;;;;;;4996708;28;20404;-87
2023/03/07 00:51:28;;;;;;;;;;;;;;;;;;5014430;28;19921;-86
2023/03/07 00:53:53;;;;;;;;;;;;;;;;;;4996375;28;19917;-87
2023/03/07 00:56:23;;;;;;;;;;;;;;;;;;5014116;28;19921;-87
2023/03/07 00:58:49;;;;;;;;;;;;;;;;;;4996692;28;19928;-86
2023/03/07 01:01:16;;;;;;;;;;;;;;;;;;5014260;28;20369;-86
2023/03/07 01:03:41;;;;;;;;;;;;;;;;;;5014100;28;19971;-86
2023/03/07 01:06:08;;;;;;;;;;;;;;;;;;4996646;28;20008;-85
2023/03/07 01:08:33;;;;;;;;;;;;;;;;;;5014369;28;19932;-87
2023/03/07 01:11:00;;;;;;;;;;;;;;;;;;5014618;28;19917;-87
2023/03/07 01:13:25;;;;;;;;;;;;;;;;;;5014579;28;19914;-86
2023/03/07 01:15:51;;;;;;;;;;;;;;;;;;4996571;28;19917;-87
2023/03/07 01:18:16;;;;;;;;;;;;;;;;;;5013591;28;19921;-86
2023/03/07 01:20:41;;;;;;;;;;;;;;;;;;4995679;28;19940;-86
2023/03/07 01:23:07;;;;;;;;;;;;;;;;;;4996364;28;19918;-85
2023/03/07 01:25:36;;;;;;;;;;;;;;;;;;5027205;28;19914;-86
2023/03/07 01:28:02;;;;;;;;;;;;;;;;;;5030105;28;19918;-86
2023/03/07 01:30:28;;;;;;;;;;;;;;;;;;5036441;28;19925;-86
2023/03/07 01:32:58;;;;;;;;;;;;;;;;;;5017303;28;19925;-86
2023/03/07 01:35:23;;;;;;;;;;;;;;;;;;5014543;28;19917;-86
2023/03/07 01:37:49;;;;;;;;;;;;;;;;;;5014403;28;20024;-87
2023/03/07 01:40:15;;;;;;;;;;;;;;;;;;4996196;28;19964;-86
2023/03/07 01:42:40;;;;;;;;;;;;;;;;;;4996066;28;19925;-87
2023/03/07 01:45:06;;;;;;;;;;;;;;;;;;4995827;28;19924;-88
2023/03/07 01:47:31;;;;;;;;;;;;;;;;;;4996251;28;19932;-88
2023/03/07 01:49:58;;;;;;;;;;;;;;;;;;4993890;28;20333;-87
2023/03/07 01:52:27;;;;;;;;;;;;;;;;;;4976452;28;20361;-86
2023/03/07 01:55:12;;;;;;;;;;;;;;;;;;4976298;28;19925;-87
2023/03/07 01:57:38;;;;;;;;;;;;;;;;;;4993949;28;20005;-86
2023/03/07 02:00:07;;;;;;;;;;;;;;;;;;4977140;28;19925;-87
2023/03/07 02:02:34;;;;;;;;;;;;;;;;;;5002473;28;19992;-87
2023/03/07 02:05:05;;;;;;;;;;;;;;;;;;4993883;28;19918;-88
2023/03/07 02:07:34;;;;;;;;;;;;;;;;;;4993676;28;20358;-87
2023/03/07 02:09:59;;;;;;;;;;;;;;;;;;4993689;28;20437;-86
2023/03/07 02:12:25;;;;;;;;;;;;;;;;;;4975939;28;19914;-87
2023/03/07 02:14:51;;;;;;;;;;;;;;;;;;4993387;28;19922;-87
2023/03/07 02:17:17;;;;;;;;;;;;;;;;;;4992382;28;19918;-86
2023/03/07 02:19:46;;;;;;;;;;;;;;;;;;4976294;28;19924;-88
2023/03/07 02:22:13;;;;;;;;;;;;;;;;;;4993612;28;19918;-87
2023/03/07 02:25:00;;;;;;;;;;;;;;;;;;4976163;28;19917;-87
2023/03/07 02:27:26;;;;;;;;;;;;;;;;;;4993526;28;19925;-87
2023/03/07 02:29:52;;;;;;;;;;;;;;;;;;4993579;28;19922;-87
2023/03/07 02:32:17;;;;;;;;;;;;;;;;;;4977015;28;20400;-86
2023/03/07 02:34:43;;;;;;;;;;;;;;;;;;4979999;28;19917;-87
2023/03/07 02:37:13;;;;;;;;;;;;;;;;;;4979880;28;19925;-87
2023/03/07 02:39:40;;;;;;;;;;;;;;;;;;4995897;28;19918;-87
2023/03/07 02:42:07;;;;;;;;;;;;;;;;;;4997212;28;20049;-87
2023/03/07 02:44:33;;;;;;;;;;;;;;;;;;4979623;28;19968;-87
2023/03/07 02:46:58;;;;;;;;;;;;;;;;;;4997177;28;20350;-87
2023/03/07 02:49:24;;;;;;;;;;;;;;;;;;4995791;28;19953;-86
2023/03/07 02:51:49;;;;;;;;;;;;;;;;;;4995843;28;19924;-87
2023/03/07 02:54:14;;;;;;;;;;;;;;;;;;4979500;28;19968;-86
2023/03/07 02:56:40;;;;;;;;;;;;;;;;;;4996575;28;20456;-86
2023/03/07 02:59:06;;;;;;;;;;;;;;;;;;4979417;28;20021;-86
2023/03/07 03:01:31;;;;;;;;;;;;;;;;;;4995350;28;19921;-87
2023/03/07 03:03:57;;;;;;;;;;;;;;;;;;4979269;28;20012;-86
2023/03/07 03:06:23;;;;;;;;;;;;;;;;;;4995195;28;19925;-86
2023/03/07 03:08:48;;;;;;;;;;;;;;;;;;4996664;28;19917;-87
2023/03/07 03:11:13;;;;;;;;;;;;;;;;;;4995390;28;19969;-86
2023/03/07 03:13:39;;;;;;;;;;;;;;;;;;4996617;28;19917;-86
2023/03/07 03:16:04;;;;;;;;;;;;;;;;;;4979466;28;19917;-87
2023/03/07 03:18:30;;;;;;;;;;;;;;;;;;4996042;28;19917;-86
2023/03/07 03:20:56;;;;;;;;;;;;;;;;;;4996472;28;19918;-86
2023/03/07 03:23:21;;;;;;;;;;;;;;;;;;4978913;28;20015;-86
2023/03/07 03:25:56;;;;;;;;;;;;;;;;;;4996407;28;20696;-87
2023/03/07 03:28:22;;;;;;;;;;;;;;;;;;4978794;28;20071;-86
2023/03/07 03:30:55;;;;;;;;;;;;;;;;;;4994897;28;19983;-86
2023/03/07 03:33:21;;;;;;;;;;;;;;;;;;4996362;28;19957;-87
2023/03/07 03:35:46;;;;;;;;;;;;;;;;;;4996003;28;19965;-87
2023/03/07 03:38:11;;;;;;;;;;;;;;;;;;4978656;28;19928;-86
2023/03/07 03:40:37;;;;;;;;;;;;;;;;;;4996145;28;19918;-87
2023/03/07 03:43:02;;;;;;;;;;;;;;;;;;4978084;28;19918;-86
2023/03/07 03:45:28;;;;;;;;;;;;;;;;;;4994795;28;19924;-87
2023/03/07 03:47:53;;;;;;;;;;;;;;;;;;4994605;28;19922;-87
2023/03/07 03:50:19;;;;;;;;;;;;;;;;;;4978461;28;19922;-86
2023/03/07 03:52:44;;;;;;;;;;;;;;;;;;4995861;28;19928;-87
2023/03/07 03:55:09;;;;;;;;;;;;;;;;;;4995637;28;20046;-86
2023/03/07 03:57:35;;;;;;;;;;;;;;;;;;4990628;28;19921;-88
2023/03/07 04:00:00;;;;;;;;;;;;;;;;;;4987114;28;19975;-87
2023/03/07 04:02:29;;;;;;;;;;;;;;;;;;5015005;28;19917;-87
2023/03/07 04:04:54;;;;;;;;;;;;;;;;;;5015309;28;20003;-87
2023/03/07 04:07:21;;;;;;;;;;;;;;;;;;4997617;28;20028;-87
2023/03/07 04:09:46;;;;;;;;;;;;;;;;;;5015163;28;19928;-88
2023/03/07 04:12:11;;;;;;;;;;;;;;;;;;5015070;28;19921;-87
2023/03/07 04:14:37;;;;;;;;;;;;;;;;;;4997214;28;19924;-86
2023/03/07 04:17:02;;;;;;;;;;;;;;;;;;4997366;28;19924;-87
2023/03/07 04:19:28;;;;;;;;;;;;;;;;;;4996998;28;19964;-88
2023/03/07 04:21:53;;;;;;;;;;;;;;;;;;4991192;28;20016;-88
2023/03/07 04:24:18;;;;;;;;;;;;;;;;;;4978207;28;19925;-87
2023/03/07 04:26:44;;;;;;;;;;;;;;;;;;4979025;28;20029;-88
2023/03/07 04:29:09;;;;;;;;;;;;;;;;;;4994849;28;19918;-87
2023/03/07 04:31:34;;;;;;;;;;;;;;;;;;4996407;28;19917;-87
2023/03/07 04:34:00;;;;;;;;;;;;;;;;;;4994318;28;19926;-88
2023/03/07 04:36:25;;;;;;;;;;;;;;;;;;4980025;28;19922;-86
2023/03/07 04:38:51;;;;;;;;;;;;;;;;;;4981539;28;19926;-87
2023/03/07 04:41:17;;;;;;;;;;;;;;;;;;4997249;28;20780;-87
2023/03/07 04:43:43;;;;;;;;;;;;;;;;;;5003827;28;19921;-86
2023/03/07 04:46:09;;;;;;;;;;;;;;;;;;4988336;28;19918;-87
2023/03/07 04:48:35;;;;;;;;;;;;;;;;;;4987697;28;19917;-86
2023/03/07 04:51:00;;;;;;;;;;;;;;;;;;4996161;28;19928;-86
2023/03/07 04:53:26;;;;;;;;;;;;;;;;;;4994390;28;19918;-86
2023/03/07 04:55:56;;;;;;;;;;;;;;;;;;4993769;28;19922;-86
2023/03/07 04:58:21;;;;;;;;;;;;;;;;;;4977372;28;19965;-87
2023/03/07 05:00:46;;;;;;;;;;;;;;;;;;4994642;28;20420;-87
2023/03/07 05:03:12;;;;;;;;;;;;;;;;;;4994579;28;20006;-86
2023/03/07 05:05:38;;;;;;;;;;;;;;;;;;4989667;28;19921;-88
2023/03/07 05:08:04;;;;;;;;;;;;;;;;;;4984609;28;19918;-87
2023/03/07 05:10:33;;;;;;;;;;;;;;;;;;4987746;28;20395;-86
2023/03/07 05:12:59;;;;;;;;;;;;;;;;;;4998108;28;20357;-87
2023/03/07 05:15:24;;;;;;;;;;;;;;;;;;5004264;28;20000;-87
2023/03/07 05:17:50;;;;;;;;;;;;;;;;;;5000695;28;20012;-86
2023/03/07 05:20:16;;;;;;;;;;;;;;;;;;4987790;28;19921;-87
2023/03/07 05:22:41;;;;;;;;;;;;;;;;;;4975001;28;19922;-85
2023/03/07 05:25:07;;;;;;;;;;;;;;;;;;4977080;28;19917;-86
2023/03/07 05:27:32;;;;;;;;;;;;;;;;;;4977188;28;20435;-85
2023/03/07 05:29:58;;;;;;;;;;;;;;;;;;4978976;28;19924;-89
2023/03/07 05:32:24;;;;;;;;;;;;;;;;;;4991923;28;19918;-87
2023/03/07 05:34:49;;;;;;;;;;;;;;;;;;4977238;28;19925;-88
2023/03/07 05:37:15;;;;;;;;;;;;;;;;;;4995157;28;19917;-87
2023/03/07 05:39:40;;;;;;;;;;;;;;;;;;4994760;28;20285;-88
2023/03/07 05:42:06;;;;;;;;;;;;;;;;;;4994667;28;20370;-88
2023/03/07 05:44:31;;;;;;;;;;;;;;;;;;4996057;28;19925;-88
2023/03/07 05:46:56;;;;;;;;;;;;;;;;;;5009803;28;19910;-85
2023/03/07 05:49:23;;;;;;;;;;;;;;;;;;5019258;28;19922;-87
2023/03/07 05:51:49;;;;;;;;;;;;;;;;;;4992416;28;19984;-87
2023/03/07 05:54:15;;;;;;;;;;;;;;;;;;4994610;28;20362;-87
2023/03/07 05:56:40;;;;;;;;;;;;;;;;;;4994381;28;20370;-86
2023/03/07 05:59:06;;;;;;;;;;;;;;;;;;4994309;28;19948;-88
2023/03/07 06:01:32;;;;;;;;;;;;;;;;;;4993989;28;20021;-85
2023/03/07 06:03:58;;;;;;;;;;;;;;;;;;4977178;28;20387;-87
2023/03/07 06:06:23;;;;;;;;;;;;;;;;;;4995112;28;19926;-88
2023/03/07 06:08:48;;;;;;;;;;;;;;;;;;4998068;28;20294;-88
2023/03/07 06:11:14;;;;;;;;;;;;;;;;;;4996810;28;19937;-88
2023/03/07 06:13:39;;;;;;;;;;;;;;;;;;4997811;28;19929;-88
2023/03/07 06:16:05;;;;;;;;;;;;;;;;;;4997835;28;19925;-90
2023/03/07 06:18:30;;;;;;;;;;;;;;;;;;4997245;28;20381;-87
2023/03/07 06:21:00;;;;;;;;;;;;;;;;;;4997404;28;20444;-88
2023/03/07 06:23:26;;;;;;;;;;;;;;;;;;4980382;28;19922;-88
2023/03/07 06:25:51;;;;;;;;;;;;;;;;;;4980081;28;19917;-88
2023/03/07 06:28:17;;;;;;;;;;;;;;;;;;4997457;28;19918;-88
2023/03/07 06:30:42;;;;;;;;;;;;;;;;;;4997248;28;19922;-88
2023/03/07 06:33:08;;;;;;;;;;;;;;;;;;4995936;28;20281;-89
2023/03/07 06:35:33;;;;;;;;;;;;;;;;;;4996266;28;20382;-89
2023/03/07 06:37:59;;;;;;;;;;;;;;;;;;4997185;28;19949;-89
2023/03/07 06:40:24;;;;;;;;;;;;;;;;;;4980036;28;19972;-88
2023/03/07 06:42:50;;;;;;;;;;;;;;;;;;4995957;28;19953;-88
2023/03/07 06:45:16;;;;;;;;;;;;;;;;;;4997090;28;19988;-88
2023/03/07 06:47:41;;;;;;;;;;;;;;;;;;4995987;28;19929;-88
2023/03/07 06:50:07;;;;;;;;;;;;;;;;;;4979692;28;19922;-89
2023/03/07 06:52:32;;;;;;;;;;;;;;;;;;4995795;28;20302;-90
2023/03/07 06:54:59;;;;;;;;;;;;;;;;;;4995760;28;20369;-89
2023/03/07 06:57:24;;;;;;;;;;;;;;;;;;4995781;28;19918;-88
2023/03/07 06:59:50;;;;;;;;;;;;;;;;;;4995655;28;20263;-89
2023/03/07 07:02:15;;;;;;;;;;;;;;;;;;4995722;28;19917;-89
2023/03/07 07:04:41;;;;;;;;;;;;;;;;;;4996966;28;20281;-88
2023/03/07 07:07:06;;;;;;;;;;;;;;;;;;4995272;28;19917;-89
2023/03/07 07:09:32;;;;;;;;;;;;;;;;;;4995568;28;20293;-89
2023/03/07 07:11:57;;;;;;;;;;;;;;;;;;4996802;28;19921;-89
2023/03/07 07:14:23;;;;;;;;;;;;;;;;;;4995169;28;19922;-89
2023/03/07 07:16:48;;;;;;;;;;;;;;;;;;4995450;28;19918;-89
2023/03/07 07:19:14;;;;;;;;;;;;;;;;;;4995855;28;20392;-88
2023/03/07 07:21:39;;;;;;;;;;;;;;;;;;4978845;28;19917;-88
2023/03/07 07:24:05;;;;;;;;;;;;;;;;;;4996394;28;20033;-88
2023/03/07 07:26:30;;;;;;;;;;;;;;;;;;4979039;28;19968;-90
2023/03/07 07:28:56;;;;;;;;;;;;;;;;;;4995097;28;19924;-89
2023/03/07 07:31:21;;;;;;;;;;;;;;;;;;4979013;28;20026;-88
2023/03/07 07:33:46;;;;;;;;;;;;;;;;;;4996519;28;20008;-90
2023/03/07 07:36:12;;;;;;;;;;;;;;;;;;4978939;28;19983;-88
2023/03/07 07:38:37;;;;;;;;;;;;;;;;;;4995108;28;19914;-89
2023/03/07 07:41:03;;;;;;;;;;;;;;;;;;4994912;28;20409;-89
2023/03/07 07:43:28;;;;;;;;;;;;;;;;;;4978635;28;19918;-89
2023/03/07 07:45:54;;;;;;;;;;;;;;;;;;4996194;28;20286;-89
2023/03/07 07:48:20;;;;;;;;;;;;;;;;;;4996177;28;19967;-89
2023/03/07 07:50:45;;;;;;;;;;;;;;;;;;4995856;28;20354;-89
2023/03/07 07:53:11;;;;;;;;;;;;;;;;;;4978451;28;20020;-90
2023/03/07 07:55:36;;;;;;;;;;;;;;;;;;4991101;28;19922;-88
2023/03/07 07:58:02;;;;;;;;;;;;;;;;;;4975130;28;19922;-88
2023/03/07 08:00:27;;;;;;;;;;;;;;;;;;4975267;28;19918;-88
2023/03/07 08:02:53;;;;;;;;;;;;;;;;;;4974916;28;19918;-89
2023/03/07 08:05:19;;;;;;;;;;;;;;;;;;4975229;28;20013;-88
2023/03/07 08:07:45;;;;;;;;;;;;;;;;;;4958793;28;19925;-88
2023/03/07 08:10:14;;;;;;;;;;;;;;;;;;4976250;28;19918;-89
2023/03/07 08:12:40;;;;;;;;;;;;;;;;;;4976188;28;19918;-87
2023/03/07 08:15:06;;;;;;;;;;;;;;;;;;4975938;28;19918;-89
2023/03/07 08:17:31;;;;;;;;;;;;;;;;;;4976038;28;19925;-89
2023/03/07 08:20:00;;;;;;;;;;;;;;;;;;4974734;28;19965;-88
2023/03/07 08:22:26;;;;;;;;;;;;;;;;;;4974684;28;19918;-87
2023/03/07 08:24:51;;;;;;;;;;;;;;;;;;4958529;28;20009;-88
2023/03/07 08:27:17;;;;;;;;;;;;;;;;;;4974588;28;20061;-88
2023/03/07 08:29:42;;;;;;;;;;;;;;;;;;4989674;28;20004;-89
2023/03/07 08:32:07;;;;;;;;;;;;;;;;;;4975943;28;20313;-87
2023/03/07 08:34:33;;;;;;;;;;;;;;;;;;4975963;28;19929;-91
2023/03/07 08:36:58;;;;;;;;;;;;;;;;;;4975638;28;19938;-90
2023/03/07 08:39:24;;;;;;;;;;;;;;;;;;4974362;28;20457;-90
2023/03/07 08:41:49;;;;;;;;;;;;;;;;;;4975491;28;19962;-89
2023/03/07 08:44:14;;;;;;;;;;;;;;;;;;4990453;28;19945;-89
2023/03/07 08:46:40;;;;;;;;;;;;;;;;;;4975584;28;19924;-89
2023/03/07 08:49:05;;;;;;;;;;;;;;;;;;4975409;28;20370;-90
2023/03/07 08:51:31;;;;;;;;;;;;;;;;;;4974010;28;19918;-89
2023/03/07 08:53:57;;;;;;;;;;;;;;;;;;4975476;28;19972;-89
2023/03/07 08:56:22;;;;;;;;;;;;;;;;;;4970308;28;20148;-89
2023/03/07 08:58:50;;;;;;;;;;;;;;;;;;4974350;28;19919;-90
2023/03/07 09:01:16;;;;;;;;;;;;;;;;;;4973614;28;20453;-90
2023/03/07 09:03:42;;;;;;;;;;;;;;;;;;4975128;28;19961;-90
2023/03/07 09:06:07;;;;;;;;;;;;;;;;;;4973967;28;19925;-90
2023/03/07 09:08:32;;;;;;;;;;;;;;;;;;4973782;28;19961;-89
2023/03/07 09:10:59;;;;;;;;;;;;;;;;;;4975050;28;19933;-89
2023/03/07 09:13:25;;;;;;;;;;;;;;;;;;4975229;28;19921;-90
2023/03/07 09:15:50;;;;;;;;;;;;;;;;;;4981913;28;20310;-90
2023/03/07 09:18:16;;;;;;;;;;;;;;;;;;4996177;28;20051;-89
2023/03/07 09:20:41;;;;;;;;;;;;;;;;;;5013631;28;19929;-91
2023/03/07 09:23:07;;;;;;;;;;;;;;;;;;4985599;28;19998;-90
2023/03/07 09:25:32;;;;;;;;;;;;;;;;;;4976699;28;19918;-89
2023/03/07 09:27:58;;;;;;;;;;;;;;;;;;4992792;28;19924;-90
2023/03/07 09:30:24;;;;;;;;;;;;;;;;;;4992860;28;19976;-90
2023/03/07 09:32:50;;;;;;;;;;;;;;;;;;4993045;28;19918;-90
2023/03/07 09:35:15;;;;;;;;;;;;;;;;;;4976368;28;19918;-89
2023/03/07 09:37:41;;;;;;;;;;;;;;;;;;4992280;28;20340;-90
2023/03/07 09:40:07;;;;;;;;;;;;;;;;;;4993546;28;20008;-89
2023/03/07 09:42:40;;;;;;;;;;;;;;;;;;4976180;28;19922;-89
2023/03/07 09:45:15;;;;;;;;;;;;;;;;;;4985817;28;19918;-89
2023/03/07 09:47:56;;;;;;;;;;;;;;;;;;4994661;28;19961;-90
2023/03/07 09:50:39;;;;;;;;;;;;;;;;;;4994431;28;19929;-89
2023/03/07 09:53:12;;;;;;;;;;;;;;;;;;5005940;28;19937;-89
2023/03/07 09:55:38;;;;;;;;;;;;;;;;;;4998460;28;19914;-89
2023/03/07 09:58:08;;;;;;;;;;;;;;;;;;4988730;28;19977;-88
2023/03/07 10:00:44;;;;;;;;;;;;;;;;;;4974723;28;19918;-87
2023/03/07 10:03:28;;;;;;;;;;;;;;;;;;4974734;28;19945;-88
2023/03/07 10:05:56;;;;;;;;;;;;;;;;;;4957158;28;19918;-90
2023/03/07 10:08:28;;;;;;;;;;;;;;;;;;4974461;28;19925;-89
2023/03/07 10:11:02;;;;;;;;;;;;;;;;;;4974456;28;20362;-89
2023/03/07 10:13:34;;;;;;;;;;;;;;;;;;4974600;28;19920;-88
2023/03/07 10:16:20;;;;;;;;;;;;;;;;;;4974351;28;20374;-88
2023/03/07 10:18:51;;;;;;;;;;;;;;;;;;4944191;28;20045;-88
2023/03/07 10:21:24;;;;;;;;;;;;;;;;;;4974522;28;19919;-89
2023/03/07 10:23:52;;;;;;;;;;;;;;;;;;4974425;28;19917;-90
2023/03/07 10:26:34;;;;;;;;;;;;;;;;;;4974246;28;19919;-90
2023/03/07 10:29:07;;;;;;;;;;;;;;;;;;4956708;28;20005;-88
2023/03/07 10:31:35;;;;;;;;;;;;;;;;;;4974351;28;19918;-88
2023/03/07 10:34:12;;;;;;;;;;;;;;;;;;4974183;28;19922;-89
2023/03/07 10:36:40;;;;;;;;;;;;;;;;;;4974351;28;19922;-88
2023/03/07 10:39:26;;;;;;;;;;;;;;;;;;4974099;28;19925;-88
2023/03/07 10:41:52;;;;;;;;;;;;;;;;;;4973693;28;19918;-88
2023/03/07 10:44:19;;;;;;;;;;;;;;;;;;4956600;28;19922;-90
2023/03/07 10:46:45;;;;;;;;;;;;;;;;;;4974132;28;19918;-88
2023/03/07 10:49:15;;;;;;;;;;;;;;;;;;4973907;28;19918;-89
2023/03/07 10:51:59;;;;;;;;;;;;;;;;;;4974118;28;19966;-89
2023/03/07 10:54:43;;;;;;;;;;;;;;;;;;4976800;28;19920;-88
2023/03/07 10:57:16;;;;;;;;;;;;;;;;;;4977667;28;19926;-87
2023/03/07 10:59:48;;;;;;;;;;;;;;;;;;4977487;28;20031;-88
2023/03/07 11:02:39;;;;;;;;;;;;;;;;;;4978048;28;19918;-89
2023/03/07 11:05:23;;;;;;;;;;;;;;;;;;4970705;28;20374;-88
2023/03/07 11:07:48;;;;;;;;;;;;;;;;;;4977312;28;20021;-88
2023/03/07 11:10:32;;;;;;;;;;;;;;;;;;4977518;28;20066;-88
2023/03/07 11:12:58;;;;;;;;;;;;;;;;;;4977872;28;19957;-87
2023/03/07 11:15:24;;;;;;;;;;;;;;;;;;4978018;28;20361;-87
2023/03/07 11:17:51;;;;;;;;;;;;;;;;;;4977261;28;20374;-88
2023/03/07 11:20:21;;;;;;;;;;;;;;;;;;4976641;28;20374;-88
2023/03/07 11:22:46;;;;;;;;;;;;;;;;;;4959630;28;20382;-88
2023/03/07 11:25:12;;;;;;;;;;;;;;;;;;4959442;28;20040;-88
2023/03/07 11:27:39;;;;;;;;;;;;;;;;;;4976822;28;20397;-88
2023/03/07 11:30:06;;;;;;;;;;;;;;;;;;4959790;28;19973;-89
2023/03/07 11:32:33;;;;;;;;;;;;;;;;;;4977299;28;20005;-87
2023/03/07 11:35:02;;;;;;;;;;;;;;;;;;4976465;28;19925;-87
2023/03/07 11:37:37;;;;;;;;;;;;;;;;;;4976815;28;19925;-88
2023/03/07 11:40:02;;;;;;;;;;;;;;;;;;4976895;28;19918;-88
2023/03/07 11:42:33;;;;;;;;;;;;;;;;;;4977037;28;19925;-91
2023/03/07 11:45:21;;;;;;;;;;;;;;;;;;4977277;28;19936;-88
2023/03/07 11:47:59;;;;;;;;;;;;;;;;;;4976461;28;20390;-87
2023/03/07 11:50:27;;;;;;;;;;;;;;;;;;4977187;28;19924;-87
2023/03/07 11:53:08;;;;;;;;;;;;;;;;;;4976548;28;20360;-88
2023/03/07 11:55:37;;;;;;;;;;;;;;;;;;4985451;28;19921;-87
2023/03/07 11:58:14;;;;;;;;;;;;;;;;;;4995900;28;19921;-88
2023/03/07 12:00:49;;;;;;;;;;;;;;;;;;4978379;28;20362;-87
2023/03/07 12:03:32;;;;;;;;;;;;;;;;;;4995802;28;20486;-87
2023/03/07 12:06:04;;;;;;;;;;;;;;;;;;4995597;28;20381;-88
2023/03/07 12:08:30;;;;;;;;;;;;;;;;;;4996522;28;19921;-87
2023/03/07 12:10:55;;;;;;;;;;;;;;;;;;4996230;28;20406;-87
2023/03/07 12:13:30;;;;;;;;;;;;;;;;;;4995667;28;19921;-88
2023/03/07 12:16:01;;;;;;;;;;;;;;;;;;4978333;28;19918;-87
2023/03/07 12:18:36;;;;;;;;;;;;;;;;;;4996125;28;19914;-88
2023/03/07 12:21:01;;;;;;;;;;;;;;;;;;4995545;28;19963;-88
2023/03/07 12:23:41;;;;;;;;;;;;;;;;;;4995605;28;19918;-89
2023/03/07 12:26:27;;;;;;;;;;;;;;;;;;4995996;28;19917;-88
2023/03/07 12:29:11;;;;;;;;;;;;;;;;;;4995210;28;20322;-86
2023/03/07 12:31:38;;;;;;;;;;;;;;;;;;4995382;28;19918;-85
2023/03/07 12:34:09;;;;;;;;;;;;;;;;;;4993817;28;19913;-87
2023/03/07 12:37:13;;;;;;;;;;;;;;;;;;4977948;28;19944;-86
2023/03/07 12:39:45;;;;;;;;;;;;;;;;;;4954420;29;19922;-88
2023/03/07 12:42:13;;;;;;;;;;;;;;;;;;4954347;29;20392;-86
2023/03/07 12:44:59;;;;;;;;;;;;;;;;;;4954068;29;19941;-86
2023/03/07 12:47:40;;;;;;;;;;;;;;;;;;4953748;28;20416;-87
2023/03/07 12:50:09;;;;;;;;;;;;;;;;;;4953988;29;19926;-87
2023/03/07 12:52:35;;;;;;;;;;;;;;;;;;4954125;29;19961;-87
2023/03/07 12:55:05;;;;;;;;;;;;;;;;;;4953877;29;19973;-86
2023/03/07 12:57:36;;;;;;;;;;;;;;;;;;4937879;29;19941;-87
2023/03/07 13:00:06;;;;;;;;;;;;;;;;;;4954035;29;20445;-86
2023/03/07 13:02:35;;;;;;;;;;;;;;;;;;4953457;29;20371;-87
2023/03/07 13:05:01;;;;;;;;;;;;;;;;;;4953825;29;19970;-87
2023/03/07 13:07:28;;;;;;;;;;;;;;;;;;4953911;29;19926;-87
2023/03/07 13:09:55;;;;;;;;;;;;;;;;;;4965908;28;20028;-87
2023/03/07 13:12:28;;;;;;;;;;;;;;;;;;4994694;28;19917;-88
2023/03/07 13:14:54;;;;;;;;;;;;;;;;;;4994449;28;19922;-87
2023/03/07 13:17:29;;;;;;;;;;;;;;;;;;4993880;28;20263;-87
2023/03/07 13:19:56;;;;;;;;;;;;;;;;;;4994402;28;20297;-88
2023/03/07 13:22:21;;;;;;;;;;;;;;;;;;4994334;28;20493;-87
2023/03/07 13:24:48;;;;;;;;;;;;;;;;;;4976781;28;19961;-87
2023/03/07 13:27:15;;;;;;;;;;;;;;;;;;4976779;28;20305;-87
2023/03/07 13:29:59;;;;;;;;;;;;;;;;;;4976672;28;19934;-87
2023/03/07 13:32:42;;;;;;;;;;;;;;;;;;4976941;28;20377;-87
2023/03/07 13:35:08;;;;;;;;;;;;;;;;;;4977648;28;19961;-87
2023/03/07 13:37:42;;;;;;;;;;;;;;;;;;4977434;28;19918;-87
2023/03/07 13:40:25;;;;;;;;;;;;;;;;;;4994790;28;19925;-86
2023/03/07 13:42:51;;;;;;;;;;;;;;;;;;4990282;28;20042;-88
2023/03/07 13:45:34;;;;;;;;;;;;;;;;;;4987617;28;20405;-88
2023/03/07 13:48:00;;;;;;;;;;;;;;;;;;4991923;28;19917;-88
2023/03/07 13:50:34;;;;;;;;;;;;;;;;;;5026245;28;19905;-88
2023/03/07 13:53:07;;;;;;;;;;;;;;;;;;4988872;28;20024;-88
2023/03/07 13:55:38;;;;;;;;;;;;;;;;;;4978790;28;19926;-90
2023/03/07 13:58:14;;;;;;;;;;;;;;;;;;5003045;28;20361;-89
2023/03/07 14:00:46;;;;;;;;;;;;;;;;;;4976624;28;19925;-87
2023/03/07 14:03:20;;;;;;;;;;;;;;;;;;4986488;28;19922;-86
2023/03/07 14:05:46;;;;;;;;;;;;;;;;;;4978198;28;19922;-87
2023/03/07 14:08:12;;;;;;;;;;;;;;;;;;4983721;28;20305;-88
2023/03/07 14:10:38;;;;;;;;;;;;;;;;;;4967422;28;20013;-89
2023/03/07 14:13:08;;;;;;;;;;;;;;;;;;4984935;28;20446;-88
2023/03/07 14:15:46;;;;;;;;;;;;;;;;;;4985074;28;20011;-89
2023/03/07 14:18:30;;;;;;;;;;;;;;;;;;4979312;28;20552;-88
2023/03/07 14:21:17;;;;;;;;;;;;;;;;;;4982368;28;19965;-90
2023/03/07 14:23:45;;;;;;;;;;;;;;;;;;4981888;28;20024;-88
2023/03/07 14:26:17;;;;;;;;;;;;;;;;;;4984423;28;19984;-89
2023/03/07 14:28:49;;;;;;;;;;;;;;;;;;4988630;28;20037;-87
2023/03/07 14:31:21;;;;;;;;;;;;;;;;;;4972823;28;20004;-87
2023/03/07 14:33:46;;;;;;;;;;;;;;;;;;4964186;28;19918;-88
2023/03/07 14:36:22;;;;;;;;;;;;;;;;;;4985088;28;19952;-88
2023/03/07 14:38:48;;;;;;;;;;;;;;;;;;4968728;28;19921;-87
2023/03/07 14:41:28;;;;;;;;;;;;;;;;;;4998340;28;19933;-88
2023/03/07 14:44:00;;;;;;;;;;;;;;;;;;4984108;28;19971;-86
2023/03/07 14:46:29;;;;;;;;;;;;;;;;;;4981102;28;20040;-87
2023/03/07 14:49:00;;;;;;;;;;;;;;;;;;4999591;28;19922;-87
2023/03/07 14:51:27;;;;;;;;;;;;;;;;;;5016927;28;19924;-86
2023/03/07 14:53:52;;;;;;;;;;;;;;;;;;5016438;28;19918;-86
2023/03/07 14:56:20;;;;;;;;;;;;;;;;;;4999069;28;19944;-85
2023/03/07 14:58:48;;;;;;;;;;;;;;;;;;5016887;28;19924;-87
2023/03/07 15:01:15;;;;;;;;;;;;;;;;;;5016675;28;20341;-87
2023/03/07 15:03:45;;;;;;;;;;;;;;;;;;5016585;28;19952;-87
2023/03/07 15:06:12;;;;;;;;;;;;;;;;;;4998726;28;20258;-87
2023/03/07 15:08:38;;;;;;;;;;;;;;;;;;5016331;28;19968;-87
2023/03/07 15:11:03;;;;;;;;;;;;;;;;;;5016414;28;19960;-88
2023/03/07 15:13:32;;;;;;;;;;;;;;;;;;4999033;28;19967;-86
2023/03/07 15:15:59;;;;;;;;;;;;;;;;;;4998873;28;20262;-87
2023/03/07 15:18:31;;;;;;;;;;;;;;;;;;5016126;28;19927;-86
2023/03/07 15:20:57;;;;;;;;;;;;;;;;;;5016219;28;19968;-86
2023/03/07 15:23:24;;;;;;;;;;;;;;;;;;5016015;28;19925;-88
2023/03/07 15:25:55;;;;;;;;;;;;;;;;;;4986396;28;19926;-86
2023/03/07 15:28:23;;;;;;;;;;;;;;;;;;4984390;28;19929;-88
2023/03/07 15:30:52;;;;;;;;;;;;;;;;;;4977813;28;19928;-88
2023/03/07 15:33:17;;;;;;;;;;;;;;;;;;5000202;28;19972;-87
2023/03/07 15:35:43;;;;;;;;;;;;;;;;;;4999146;28;20686;-88
2023/03/07 15:38:29;;;;;;;;;;;;;;;;;;5003458;28;20023;-87
2023/03/07 15:40:54;;;;;;;;;;;;;;;;;;5001985;28;19994;-86
2023/03/07 15:43:19;;;;;;;;;;;;;;;;;;4999341;28;19954;-86
2023/03/07 15:45:58;;;;;;;;;;;;;;;;;;4999753;28;19922;-87
2023/03/07 15:48:33;;;;;;;;;;;;;;;;;;5000407;28;19921;-86
2023/03/07 15:50:59;;;;;;;;;;;;;;;;;;4981321;28;19930;-87
2023/03/07 15:53:30;;;;;;;;;;;;;;;;;;4996148;28;19968;-87
2023/03/07 15:55:59;;;;;;;;;;;;;;;;;;4996203;28;20366;-87
2023/03/07 15:58:25;;;;;;;;;;;;;;;;;;5015327;28;19971;-87
2023/03/07 16:01:03;;;;;;;;;;;;;;;;;;5006469;28;20002;-86
2023/03/07 16:03:29;;;;;;;;;;;;;;;;;;4978665;28;20002;-86
2023/03/07 16:05:55;;;;;;;;;;;;;;;;;;4984719;28;19961;-86
2023/03/07 16:08:20;;;;;;;;;;;;;;;;;;5002024;28;19921;-88
2023/03/07 16:10:51;;;;;;;;;;;;;;;;;;4979517;28;19932;-88
2023/03/07 16:13:18;;;;;;;;;;;;;;;;;;4989066;28;19917;-87
2023/03/07 16:15:44;;;;;;;;;;;;;;;;;;4977582;28;19918;-87
2023/03/07 16:18:16;;;;;;;;;;;;;;;;;;5006174;28;19928;-86
2023/03/07 16:20:49;;;;;;;;;;;;;;;;;;4992623;28;20012;-87
2023/03/07 16:23:14;;;;;;;;;;;;;;;;;;4983394;28;20321;-86
2023/03/07 16:25:41;;;;;;;;;;;;;;;;;;4994416;28;19933;-88
2023/03/07 16:28:08;;;;;;;;;;;;;;;;;;4995146;28;20258;-87
2023/03/07 16:30:34;;;;;;;;;;;;;;;;;;4995123;28;19918;-87
2023/03/07 16:32:59;;;;;;;;;;;;;;;;;;4977569;28;19922;-87
2023/03/07 16:35:26;;;;;;;;;;;;;;;;;;4994982;28;20219;-86
2023/03/07 16:37:52;;;;;;;;;;;;;;;;;;4980154;28;20008;-88
2023/03/07 16:43:03;;;;;;;;;;;;;;;;;;4988370;28;20381;-87
2023/03/07 16:45:32;;;;;;;;;;;;;;;;;;4992534;28;19950;-87
2023/03/07 16:48:03;;;;;;;;;;;;;;;;;;4978493;28;20402;-89
2023/03/07 16:50:30;;;;;;;;;;;;;;;;;;4994109;28;19941;-88
2023/03/07 16:52:56;;;;;;;;;;;;;;;;;;4962541;28;19918;-86
2023/03/07 16:55:22;;;;;;;;;;;;;;;;;;4996953;28;19921;-85